sensor_id;sensor_type;location;lat;lon;timestamp;temperature;humidity
23671;DHT22;12012;51.998;7.614;2022-09-09T00:06:27;16.00;91.90
23671;DHT22;12012;51.998;7.614;2022-09-09T00:11:29;16.00;1.00
23671;DHT22;12012;51.998;7.614;2022-09-09T00:13:58;16.00;99.90
23671;DHT22;12012;51.998;7.614;2022-09-09T00:16:28;16.00;99.90
23671;DHT22;12012;51.998;7.614;2022-09-09T00:19:18;16.00;25.80
23671;DHT22;12012;51.998;7.614;2022-09-09T00:22:14;16.00;99.90
23671;DHT22;12012;51.998;7.614;2022-09-09T00:24:46;16.00;99.90
23671;DHT22;12012;51.998;7.614;2022-09-09T00:27:19;16.00;99.90
23671;DHT22;12012;51.998;7.614;2022-09-09T00:29:54;16.00;99.90
23671;DHT22;12012;51.998;7.614;2022-09-09T00:32:21;16.00;1.00
23671;DHT22;12012;51.998;7.614;2022-09-09T00:34:58;16.10;27.70
23671;DHT22;12012;51.998;7.614;2022-09-09T00:37:27;16.10;99.90
23671;DHT22;12012;51.998;7.614;2022-09-09T00:39:57;16.00;99.90
23671;DHT22;12012;51.998;7.614;2022-09-09T00:42:30;16.10;99.90
23671;DHT22;12012;51.998;7.614;2022-09-09T00:47:56;16.00;1.00
23671;DHT22;12012;51.998;7.614;2022-09-09T00:53:10;15.90;1.00
23671;DHT22;12012;51.998;7.614;2022-09-09T00:56:00;15.90;1.00
23671;DHT22;12012;51.998;7.614;2022-09-09T00:58:27;15.80;1.00
23671;DHT22;12012;51.998;7.614;2022-09-09T01:03:36;15.80;99.90
23671;DHT22;12012;51.998;7.614;2022-09-09T01:09:03;15.70;99.90
23671;DHT22;12012;51.998;7.614;2022-09-09T01:11:40;15.60;99.90
23671;DHT22;12012;51.998;7.614;2022-09-09T01:16:44;15.50;99.90
23671;DHT22;12012;51.998;7.614;2022-09-09T01:19:19;15.50;99.90
23671;DHT22;12012;51.998;7.614;2022-09-09T01:22:16;15.40;99.90
23671;DHT22;12012;51.998;7.614;2022-09-09T01:27:31;15.40;99.90
23671;DHT22;12012;51.998;7.614;2022-09-09T01:29:58;15.40;99.90
23671;DHT22;12012;51.998;7.614;2022-09-09T01:36:01;15.40;1.00
23671;DHT22;12012;51.998;7.614;2022-09-09T01:38:00;15.30;1.00
23671;DHT22;12012;51.998;7.614;2022-09-09T01:40:26;15.30;1.00
23671;DHT22;12012;51.998;7.614;2022-09-09T01:42:53;15.30;1.00
23671;DHT22;12012;51.998;7.614;2022-09-09T01:45:19;15.30;1.00
23671;DHT22;12012;51.998;7.614;2022-09-09T01:47:45;15.20;1.00
23671;DHT22;12012;51.998;7.614;2022-09-09T01:50:13;15.20;1.00
23671;DHT22;12012;51.998;7.614;2022-09-09T01:52:39;15.20;1.00
23671;DHT22;12012;51.998;7.614;2022-09-09T01:55:06;15.20;1.00
23671;DHT22;12012;51.998;7.614;2022-09-09T01:57:54;15.20;1.00
23671;DHT22;12012;51.998;7.614;2022-09-09T02:00:24;15.10;1.00
23671;DHT22;12012;51.998;7.614;2022-09-09T02:03:04;15.20;1.00
23671;DHT22;12012;51.998;7.614;2022-09-09T02:08:18;15.10;1.00
23671;DHT22;12012;51.998;7.614;2022-09-09T02:11:07;15.10;1.00
23671;DHT22;12012;51.998;7.614;2022-09-09T02:13:38;15.10;1.00
23671;DHT22;12012;51.998;7.614;2022-09-09T02:16:10;15.10;1.00
23671;DHT22;12012;51.998;7.614;2022-09-09T02:18:59;15.10;1.00
23671;DHT22;12012;51.998;7.614;2022-09-09T02:21:30;15.00;1.00
23671;DHT22;12012;51.998;7.614;2022-09-09T02:23:59;15.00;1.00
23671;DHT22;12012;51.998;7.614;2022-09-09T02:26:26;15.00;1.00
23671;DHT22;12012;51.998;7.614;2022-09-09T02:28:55;15.00;1.00
23671;DHT22;12012;51.998;7.614;2022-09-09T02:31:24;14.90;1.00
23671;DHT22;12012;51.998;7.614;2022-09-09T02:33:59;14.90;1.00
23671;DHT22;12012;51.998;7.614;2022-09-09T02:36:28;14.90;1.00
23671;DHT22;12012;51.998;7.614;2022-09-09T02:38:55;14.90;1.00
23671;DHT22;12012;51.998;7.614;2022-09-09T02:41:26;14.80;1.00
23671;DHT22;12012;51.998;7.614;2022-09-09T02:43:53;14.80;1.00
23671;DHT22;12012;51.998;7.614;2022-09-09T02:46:27;14.80;1.20
23671;DHT22;12012;51.998;7.614;2022-09-09T02:49:02;14.80;1.00
23671;DHT22;12012;51.998;7.614;2022-09-09T02:54:27;14.80;1.00
23671;DHT22;12012;51.998;7.614;2022-09-09T02:57:01;14.80;1.00
23671;DHT22;12012;51.998;7.614;2022-09-09T02:59:29;14.80;1.00
23671;DHT22;12012;51.998;7.614;2022-09-09T03:01:55;14.80;1.00
23671;DHT22;12012;51.998;7.614;2022-09-09T03:04:21;14.80;1.00
23671;DHT22;12012;51.998;7.614;2022-09-09T03:06:47;14.80;1.00
23671;DHT22;12012;51.998;7.614;2022-09-09T03:09:13;14.90;1.00
23671;DHT22;12012;51.998;7.614;2022-09-09T03:11:38;14.90;1.00
23671;DHT22;12012;51.998;7.614;2022-09-09T03:14:04;14.90;1.00
23671;DHT22;12012;51.998;7.614;2022-09-09T03:16:30;14.90;1.00
23671;DHT22;12012;51.998;7.614;2022-09-09T03:18:56;14.90;1.00
23671;DHT22;12012;51.998;7.614;2022-09-09T03:21:21;14.90;1.00
23671;DHT22;12012;51.998;7.614;2022-09-09T03:23:47;14.90;1.00
23671;DHT22;12012;51.998;7.614;2022-09-09T03:26:12;14.90;1.00
23671;DHT22;12012;51.998;7.614;2022-09-09T03:28:41;14.90;1.00
23671;DHT22;12012;51.998;7.614;2022-09-09T03:31:06;14.90;1.00
23671;DHT22;12012;51.998;7.614;2022-09-09T03:33:38;14.90;1.00
23671;DHT22;12012;51.998;7.614;2022-09-09T03:36:05;14.90;1.00
23671;DHT22;12012;51.998;7.614;2022-09-09T03:38:30;14.90;1.00
23671;DHT22;12012;51.998;7.614;2022-09-09T03:40:57;14.90;1.00
23671;DHT22;12012;51.998;7.614;2022-09-09T03:43:24;14.90;1.00
23671;DHT22;12012;51.998;7.614;2022-09-09T03:45:51;14.90;1.00
23671;DHT22;12012;51.998;7.614;2022-09-09T03:48:18;14.90;1.00
23671;DHT22;12012;51.998;7.614;2022-09-09T03:50:48;14.90;1.00
23671;DHT22;12012;51.998;7.614;2022-09-09T03:53:15;14.80;1.00
23671;DHT22;12012;51.998;7.614;2022-09-09T03:55:49;14.80;1.00
23671;DHT22;12012;51.998;7.614;2022-09-09T03:58:16;14.80;1.00
23671;DHT22;12012;51.998;7.614;2022-09-09T04:00:52;14.80;1.00
23671;DHT22;12012;51.998;7.614;2022-09-09T04:03:18;14.80;1.00
23671;DHT22;12012;51.998;7.614;2022-09-09T04:05:49;14.80;1.00
23671;DHT22;12012;51.998;7.614;2022-09-09T04:08:14;14.80;1.00
23671;DHT22;12012;51.998;7.614;2022-09-09T04:10:40;14.80;5.20
23671;DHT22;12012;51.998;7.614;2022-09-09T04:13:07;14.90;1.00
23671;DHT22;12012;51.998;7.614;2022-09-09T04:15:33;14.90;1.00
23671;DHT22;12012;51.998;7.614;2022-09-09T04:18:00;14.90;1.00
23671;DHT22;12012;51.998;7.614;2022-09-09T04:20:26;14.90;1.00
23671;DHT22;12012;51.998;7.614;2022-09-09T04:22:52;14.90;1.00
23671;DHT22;12012;51.998;7.614;2022-09-09T04:25:17;15.00;1.00
23671;DHT22;12012;51.998;7.614;2022-09-09T04:27:43;15.00;1.70
23671;DHT22;12012;51.998;7.614;2022-09-09T04:30:09;15.00;1.00
23671;DHT22;12012;51.998;7.614;2022-09-09T04:32:35;15.00;3.30
23671;DHT22;12012;51.998;7.614;2022-09-09T04:35:02;15.00;1.00
23671;DHT22;12012;51.998;7.614;2022-09-09T04:37:28;15.10;6.70
23671;DHT22;12012;51.998;7.614;2022-09-09T04:39:54;15.10;4.40
23671;DHT22;12012;51.998;7.614;2022-09-09T04:42:19;15.10;3.50
23671;DHT22;12012;51.998;7.614;2022-09-09T04:44:45;15.10;1.00
23671;DHT22;12012;51.998;7.614;2022-09-09T04:47:11;15.10;6.20
23671;DHT22;12012;51.998;7.614;2022-09-09T04:49:37;15.10;18.80
23671;DHT22;12012;51.998;7.614;2022-09-09T04:52:03;15.10;16.40
23671;DHT22;12012;51.998;7.614;2022-09-09T04:54:29;15.10;24.40
23671;DHT22;12012;51.998;7.614;2022-09-09T04:56:55;15.10;24.30
23671;DHT22;12012;51.998;7.614;2022-09-09T04:59:21;15.10;17.40
23671;DHT22;12012;51.998;7.614;2022-09-09T05:01:48;15.10;23.70
23671;DHT22;12012;51.998;7.614;2022-09-09T05:04:13;15.10;29.50
23671;DHT22;12012;51.998;7.614;2022-09-09T05:06:40;15.10;29.80
23671;DHT22;12012;51.998;7.614;2022-09-09T05:09:07;15.20;38.20
23671;DHT22;12012;51.998;7.614;2022-09-09T05:11:34;15.20;30.50
23671;DHT22;12012;51.998;7.614;2022-09-09T05:14:02;15.20;32.60
23671;DHT22;12012;51.998;7.614;2022-09-09T05:16:28;15.20;28.40
23671;DHT22;12012;51.998;7.614;2022-09-09T05:18:53;15.30;28.50
23671;DHT22;12012;51.998;7.614;2022-09-09T05:21:20;15.30;29.70
23671;DHT22;12012;51.998;7.614;2022-09-09T05:23:47;15.30;32.30
23671;DHT22;12012;51.998;7.614;2022-09-09T05:26:17;15.40;33.00
23671;DHT22;12012;51.998;7.614;2022-09-09T05:28:43;15.40;19.00
23671;DHT22;12012;51.998;7.614;2022-09-09T05:31:10;15.40;17.20
23671;DHT22;12012;51.998;7.614;2022-09-09T05:33:40;15.50;16.40
23671;DHT22;12012;51.998;7.614;2022-09-09T05:36:08;15.50;25.60
23671;DHT22;12012;51.998;7.614;2022-09-09T05:38:35;15.50;19.80
23671;DHT22;12012;51.998;7.614;2022-09-09T05:41:02;15.60;21.00
23671;DHT22;12012;51.998;7.614;2022-09-09T05:43:28;15.60;12.40
23671;DHT22;12012;51.998;7.614;2022-09-09T05:48:31;15.70;15.60
23671;DHT22;12012;51.998;7.614;2022-09-09T05:50:59;15.70;7.30
23671;DHT22;12012;51.998;7.614;2022-09-09T05:53:28;15.70;12.60
23671;DHT22;12012;51.998;7.614;2022-09-09T05:56:06;15.80;9.50
23671;DHT22;12012;51.998;7.614;2022-09-09T05:58:32;15.80;6.40
23671;DHT22;12012;51.998;7.614;2022-09-09T06:01:06;15.80;1.00
23671;DHT22;12012;51.998;7.614;2022-09-09T06:03:34;15.90;1.00
23671;DHT22;12012;51.998;7.614;2022-09-09T06:06:01;15.90;1.00
23671;DHT22;12012;51.998;7.614;2022-09-09T06:08:27;16.00;1.00
23671;DHT22;12012;51.998;7.614;2022-09-09T06:10:53;16.00;1.00
23671;DHT22;12012;51.998;7.614;2022-09-09T06:13:19;16.00;1.00
23671;DHT22;12012;51.998;7.614;2022-09-09T06:15:53;16.10;1.00
23671;DHT22;12012;51.998;7.614;2022-09-09T06:18:19;16.10;1.00
23671;DHT22;12012;51.998;7.614;2022-09-09T06:21:01;16.20;1.00
23671;DHT22;12012;51.998;7.614;2022-09-09T06:23:29;16.20;1.00
23671;DHT22;12012;51.998;7.614;2022-09-09T06:26:16;16.30;1.00
23671;DHT22;12012;51.998;7.614;2022-09-09T06:28:47;16.40;1.00
23671;DHT22;12012;51.998;7.614;2022-09-09T06:31:14;16.40;1.00
23671;DHT22;12012;51.998;7.614;2022-09-09T06:33:43;16.50;1.00
23671;DHT22;12012;51.998;7.614;2022-09-09T06:36:14;16.60;1.00
23671;DHT22;12012;51.998;7.614;2022-09-09T06:38:41;16.60;1.00
23671;DHT22;12012;51.998;7.614;2022-09-09T06:41:08;16.70;1.00
23671;DHT22;12012;51.998;7.614;2022-09-09T06:43:34;16.80;1.00
23671;DHT22;12012;51.998;7.614;2022-09-09T06:46:11;16.80;1.00
23671;DHT22;12012;51.998;7.614;2022-09-09T06:48:39;16.90;1.00
23671;DHT22;12012;51.998;7.614;2022-09-09T06:51:10;17.00;1.00
23671;DHT22;12012;51.998;7.614;2022-09-09T06:53:40;17.10;99.90
23671;DHT22;12012;51.998;7.614;2022-09-09T06:56:31;17.10;99.90
23671;DHT22;12012;51.998;7.614;2022-09-09T06:58:58;17.10;99.90
23671;DHT22;12012;51.998;7.614;2022-09-09T07:01:28;17.20;99.90
23671;DHT22;12012;51.998;7.614;2022-09-09T07:03:56;17.30;99.90
23671;DHT22;12012;51.998;7.614;2022-09-09T07:06:33;17.30;99.90
23671;DHT22;12012;51.998;7.614;2022-09-09T07:09:08;17.40;1.00
23671;DHT22;12012;51.998;7.614;2022-09-09T07:11:37;17.40;1.00
23671;DHT22;12012;51.998;7.614;2022-09-09T07:14:03;17.40;1.00
23671;DHT22;12012;51.998;7.614;2022-09-09T07:16:29;17.40;1.00
23671;DHT22;12012;51.998;7.614;2022-09-09T07:18:56;17.50;1.00
23671;DHT22;12012;51.998;7.614;2022-09-09T07:21:26;17.60;99.90
23671;DHT22;12012;51.998;7.614;2022-09-09T07:23:53;17.70;99.90
23671;DHT22;12012;51.998;7.614;2022-09-09T07:26:21;17.70;99.90
23671;DHT22;12012;51.998;7.614;2022-09-09T07:28:48;17.70;99.90
23671;DHT22;12012;51.998;7.614;2022-09-09T07:31:16;17.70;1.00
23671;DHT22;12012;51.998;7.614;2022-09-09T07:33:43;17.70;1.00
23671;DHT22;12012;51.998;7.614;2022-09-09T07:36:18;17.80;99.90
23671;DHT22;12012;51.998;7.614;2022-09-09T07:38:56;17.90;99.90
23671;DHT22;12012;51.998;7.614;2022-09-09T07:43:49;18.30;41.70
23671;DHT22;12012;51.998;7.614;2022-09-09T07:46:18;18.70;99.90
23671;DHT22;12012;51.998;7.614;2022-09-09T07:48:45;18.90;1.00
23671;DHT22;12012;51.998;7.614;2022-09-09T07:51:14;19.20;87.80
23671;DHT22;12012;51.998;7.614;2022-09-09T07:53:44;19.40;99.90
23671;DHT22;12012;51.998;7.614;2022-09-09T07:56:13;19.60;99.90
23671;DHT22;12012;51.998;7.614;2022-09-09T07:58:40;19.90;98.20
23671;DHT22;12012;51.998;7.614;2022-09-09T08:01:12;20.10;99.90
23671;DHT22;12012;51.998;7.614;2022-09-09T08:03:38;20.10;96.20
23671;DHT22;12012;51.998;7.614;2022-09-09T08:06:06;20.10;5.80
23671;DHT22;12012;51.998;7.614;2022-09-09T08:08:34;20.00;1.00
23671;DHT22;12012;51.998;7.614;2022-09-09T08:11:05;19.80;99.90
23671;DHT22;12012;51.998;7.614;2022-09-09T08:13:33;19.70;99.90
23671;DHT22;12012;51.998;7.614;2022-09-09T08:16:08;19.50;99.90
23671;DHT22;12012;51.998;7.614;2022-09-09T08:18:34;19.10;99.90
23671;DHT22;12012;51.998;7.614;2022-09-09T08:23:38;18.70;99.90
23671;DHT22;12012;51.998;7.614;2022-09-09T08:26:06;18.60;99.90
23671;DHT22;12012;51.998;7.614;2022-09-09T08:28:32;18.50;99.90
23671;DHT22;12012;51.998;7.614;2022-09-09T08:31:12;18.70;1.00
23671;DHT22;12012;51.998;7.614;2022-09-09T08:33:39;19.00;99.90
23671;DHT22;12012;51.998;7.614;2022-09-09T08:36:08;19.10;1.00
23671;DHT22;12012;51.998;7.614;2022-09-09T08:38:34;19.10;99.90
23671;DHT22;12012;51.998;7.614;2022-09-09T08:44:00;19.20;59.10
23671;DHT22;12012;51.998;7.614;2022-09-09T08:52:25;20.40;99.90
23671;DHT22;12012;51.998;7.614;2022-09-09T08:54:55;20.70;26.80
23671;DHT22;12012;51.998;7.614;2022-09-09T08:57:26;20.80;1.00
23671;DHT22;12012;51.998;7.614;2022-09-09T08:59:54;20.90;99.90
23671;DHT22;12012;51.998;7.614;2022-09-09T09:07:48;21.00;99.90
23671;DHT22;12012;51.998;7.614;2022-09-09T09:13:02;21.40;71.60
23671;DHT22;12012;51.998;7.614;2022-09-09T09:15:36;21.60;1.00
23671;DHT22;12012;51.998;7.614;2022-09-09T09:18:04;21.60;1.00
23671;DHT22;12012;51.998;7.614;2022-09-09T09:20:48;21.50;1.00
23671;DHT22;12012;51.998;7.614;2022-09-09T09:23:22;21.80;1.00
23671;DHT22;12012;51.998;7.614;2022-09-09T09:25:48;22.30;99.90
23671;DHT22;12012;51.998;7.614;2022-09-09T09:28:26;22.80;99.90
23671;DHT22;12012;51.998;7.614;2022-09-09T09:30:57;23.00;99.90
23671;DHT22;12012;51.998;7.614;2022-09-09T09:33:50;23.30;25.70
23671;DHT22;12012;51.998;7.614;2022-09-09T09:36:19;23.20;5.40
23671;DHT22;12012;51.998;7.614;2022-09-09T09:38:58;22.90;4.50
23671;DHT22;12012;51.998;7.614;2022-09-09T09:41:38;22.70;1.00
23671;DHT22;12012;51.998;7.614;2022-09-09T09:44:05;22.90;4.10
23671;DHT22;12012;51.998;7.614;2022-09-09T09:46:32;22.90;1.00
23671;DHT22;12012;51.998;7.614;2022-09-09T09:49:05;22.80;1.00
23671;DHT22;12012;51.998;7.614;2022-09-09T09:51:34;22.50;1.00
23671;DHT22;12012;51.998;7.614;2022-09-09T09:56:39;22.10;1.00
23671;DHT22;12012;51.998;7.614;2022-09-09T09:59:05;21.90;1.00
23671;DHT22;12012;51.998;7.614;2022-09-09T10:01:44;21.70;1.00
23671;DHT22;12012;51.998;7.614;2022-09-09T10:04:18;21.80;1.00
23671;DHT22;12012;51.998;7.614;2022-09-09T10:06:45;22.40;1.00
23671;DHT22;12012;51.998;7.614;2022-09-09T10:09:28;23.20;1.00
23671;DHT22;12012;51.998;7.614;2022-09-09T10:12:03;23.90;1.00
23671;DHT22;12012;51.998;7.614;2022-09-09T10:22:45;25.80;1.00
23671;DHT22;12012;51.998;7.614;2022-09-09T10:25:36;26.20;1.00
23671;DHT22;12012;51.998;7.614;2022-09-09T10:28:30;26.20;1.00
23671;DHT22;12012;51.998;7.614;2022-09-09T10:36:28;26.00;1.00
23671;DHT22;12012;51.998;7.614;2022-09-09T10:39:12;26.70;99.90
23671;DHT22;12012;51.998;7.614;2022-09-09T10:42:03;26.50;99.90
23671;DHT22;12012;51.998;7.614;2022-09-09T10:50:28;25.70;99.90
23671;DHT22;12012;51.998;7.614;2022-09-09T10:53:14;26.50;99.90
23671;DHT22;12012;51.998;7.614;2022-09-09T10:55:47;27.10;99.90
23671;DHT22;12012;51.998;7.614;2022-09-09T10:58:50;26.60;99.90
23671;DHT22;12012;51.998;7.614;2022-09-09T11:01:43;26.00;99.90
23671;DHT22;12012;51.998;7.614;2022-09-09T11:04:27;25.40;99.90
23671;DHT22;12012;51.998;7.614;2022-09-09T11:06:58;24.90;99.90
23671;DHT22;12012;51.998;7.614;2022-09-09T11:09:32;24.40;99.90
23671;DHT22;12012;51.998;7.614;2022-09-09T11:12:00;24.10;99.90
23671;DHT22;12012;51.998;7.614;2022-09-09T11:14:40;24.10;99.90
23671;DHT22;12012;51.998;7.614;2022-09-09T11:17:14;24.40;99.90
23671;DHT22;12012;51.998;7.614;2022-09-09T11:19:43;24.70;99.90
23671;DHT22;12012;51.998;7.614;2022-09-09T11:22:33;25.40;99.90
23671;DHT22;12012;51.998;7.614;2022-09-09T11:25:08;26.00;99.90
23671;DHT22;12012;51.998;7.614;2022-09-09T11:31:02;27.10;99.90
23671;DHT22;12012;51.998;7.614;2022-09-09T11:33:45;26.80;99.90
23671;DHT22;12012;51.998;7.614;2022-09-09T11:39:38;25.60;99.90
23671;DHT22;12012;51.998;7.614;2022-09-09T11:42:18;25.30;99.90
23671;DHT22;12012;51.998;7.614;2022-09-09T11:44:44;25.30;99.90
23671;DHT22;12012;51.998;7.614;2022-09-09T11:47:29;25.20;99.90
23671;DHT22;12012;51.998;7.614;2022-09-09T11:52:42;24.70;99.90
23671;DHT22;12012;51.998;7.614;2022-09-09T11:55:31;26.00;99.90
23671;DHT22;12012;51.998;7.614;2022-09-09T11:58:19;27.30;99.90
23671;DHT22;12012;51.998;7.614;2022-09-09T12:00:49;29.90;99.90
23671;DHT22;12012;51.998;7.614;2022-09-09T12:06:11;31.90;99.90
23671;DHT22;12012;51.998;7.614;2022-09-09T12:08:43;33.30;99.90
23671;DHT22;12012;51.998;7.614;2022-09-09T12:11:10;34.20;99.90
23671;DHT22;12012;51.998;7.614;2022-09-09T12:13:37;34.80;99.90
23671;DHT22;12012;51.998;7.614;2022-09-09T12:16:03;34.60;99.90
23671;DHT22;12012;51.998;7.614;2022-09-09T12:18:38;33.20;99.90
23671;DHT22;12012;51.998;7.614;2022-09-09T12:21:26;31.20;99.90
23671;DHT22;12012;51.998;7.614;2022-09-09T12:24:03;30.00;99.90
23671;DHT22;12012;51.998;7.614;2022-09-09T12:26:47;29.30;99.90
23671;DHT22;12012;51.998;7.614;2022-09-09T12:31:46;29.40;99.90
23671;DHT22;12012;51.998;7.614;2022-09-09T12:34:30;29.20;99.90
23671;DHT22;12012;51.998;7.614;2022-09-09T12:37:01;29.30;99.90
23671;DHT22;12012;51.998;7.614;2022-09-09T12:39:38;30.50;99.90
23671;DHT22;12012;51.998;7.614;2022-09-09T12:42:16;30.70;99.90
23671;DHT22;12012;51.998;7.614;2022-09-09T12:44:57;30.60;99.90
23671;DHT22;12012;51.998;7.614;2022-09-09T12:47:37;30.10;99.90
23671;DHT22;12012;51.998;7.614;2022-09-09T12:50:04;29.70;99.90
23671;DHT22;12012;51.998;7.614;2022-09-09T12:52:35;29.40;99.90
23671;DHT22;12012;51.998;7.614;2022-09-09T12:55:04;29.40;99.90
23671;DHT22;12012;51.998;7.614;2022-09-09T12:57:37;29.10;99.90
23671;DHT22;12012;51.998;7.614;2022-09-09T13:00:13;28.60;99.90
23671;DHT22;12012;51.998;7.614;2022-09-09T13:02:56;28.10;99.90
23671;DHT22;12012;51.998;7.614;2022-09-09T13:07:50;27.80;99.90
23671;DHT22;12012;51.998;7.614;2022-09-09T13:10:22;28.70;99.90
23671;DHT22;12012;51.998;7.614;2022-09-09T13:12:48;29.30;99.90
23671;DHT22;12012;51.998;7.614;2022-09-09T13:15:20;28.80;99.90
23671;DHT22;12012;51.998;7.614;2022-09-09T13:17:58;28.40;99.90
23671;DHT22;12012;51.998;7.614;2022-09-09T13:20:26;27.80;99.90
23671;DHT22;12012;51.998;7.614;2022-09-09T13:22:53;27.20;99.90
23671;DHT22;12012;51.998;7.614;2022-09-09T13:25:26;26.70;99.90
23671;DHT22;12012;51.998;7.614;2022-09-09T13:30:26;25.50;99.90
23671;DHT22;12012;51.998;7.614;2022-09-09T13:35:58;24.10;99.90
23671;DHT22;12012;51.998;7.614;2022-09-09T13:38:25;22.90;99.90
23671;DHT22;12012;51.998;7.614;2022-09-09T13:43:27;20.90;99.90
23671;DHT22;12012;51.998;7.614;2022-09-09T13:45:55;20.30;99.90
23671;DHT22;12012;51.998;7.614;2022-09-09T13:48:22;20.10;1.00
23671;DHT22;12012;51.998;7.614;2022-09-09T13:51:29;20.00;1.00
23671;DHT22;12012;51.998;7.614;2022-09-09T13:53:55;20.20;1.00
23671;DHT22;12012;51.998;7.614;2022-09-09T13:56:22;21.40;1.00
23671;DHT22;12012;51.998;7.614;2022-09-09T13:58:47;22.50;1.00
23671;DHT22;12012;51.998;7.614;2022-09-09T14:01:13;22.70;1.00
23671;DHT22;12012;51.998;7.614;2022-09-09T14:03:38;22.40;1.00
23671;DHT22;12012;51.998;7.614;2022-09-09T14:06:04;22.10;1.00
23671;DHT22;12012;51.998;7.614;2022-09-09T14:08:30;21.80;1.00
23671;DHT22;12012;51.998;7.614;2022-09-09T14:11:03;21.60;1.00
23671;DHT22;12012;51.998;7.614;2022-09-09T14:13:28;21.40;1.00
23671;DHT22;12012;51.998;7.614;2022-09-09T14:15:54;21.30;1.00
23671;DHT22;12012;51.998;7.614;2022-09-09T14:18:19;21.10;1.00
23671;DHT22;12012;51.998;7.614;2022-09-09T14:20:45;21.00;1.00
23671;DHT22;12012;51.998;7.614;2022-09-09T14:23:12;20.90;36.20
23671;DHT22;12012;51.998;7.614;2022-09-09T14:25:40;20.70;31.40
23671;DHT22;12012;51.998;7.614;2022-09-09T14:28:11;20.50;99.90
23671;DHT22;12012;51.998;7.614;2022-09-09T14:30:39;20.30;99.90
23671;DHT22;12012;51.998;7.614;2022-09-09T14:33:05;19.90;99.90
23671;DHT22;12012;51.998;7.614;2022-09-09T14:35:31;19.50;1.00
23671;DHT22;12012;51.998;7.614;2022-09-09T14:37:58;19.10;99.90
23671;DHT22;12012;51.998;7.614;2022-09-09T14:40:24;18.80;1.00
23671;DHT22;12012;51.998;7.614;2022-09-09T14:42:49;18.40;91.70
23671;DHT22;12012;51.998;7.614;2022-09-09T14:45:15;18.20;1.00
23671;DHT22;12012;51.998;7.614;2022-09-09T14:47:41;18.10;99.90
23671;DHT22;12012;51.998;7.614;2022-09-09T14:50:07;18.00;99.90
23671;DHT22;12012;51.998;7.614;2022-09-09T14:52:33;18.00;1.00
23671;DHT22;12012;51.998;7.614;2022-09-09T14:54:59;18.00;99.90
23671;DHT22;12012;51.998;7.614;2022-09-09T14:57:24;18.00;99.90
23671;DHT22;12012;51.998;7.614;2022-09-09T14:59:50;18.20;99.90
23671;DHT22;12012;51.998;7.614;2022-09-09T15:02:15;18.30;99.90
23671;DHT22;12012;51.998;7.614;2022-09-09T15:04:41;18.60;99.90
23671;DHT22;12012;51.998;7.614;2022-09-09T15:07:07;19.10;99.90
23671;DHT22;12012;51.998;7.614;2022-09-09T15:09:33;19.70;99.90
23671;DHT22;12012;51.998;7.614;2022-09-09T15:11:58;20.40;99.90
23671;DHT22;12012;51.998;7.614;2022-09-09T15:14:24;21.00;25.20
23671;DHT22;12012;51.998;7.614;2022-09-09T15:16:51;21.50;1.00
23671;DHT22;12012;51.998;7.614;2022-09-09T15:19:17;22.10;99.90
23671;DHT22;12012;51.998;7.614;2022-09-09T15:21:42;22.60;99.90
23671;DHT22;12012;51.998;7.614;2022-09-09T15:24:08;22.90;99.90
23671;DHT22;12012;51.998;7.614;2022-09-09T15:26:34;23.00;99.90
23671;DHT22;12012;51.998;7.614;2022-09-09T15:28:59;22.80;99.90
23671;DHT22;12012;51.998;7.614;2022-09-09T15:31:28;22.50;99.90
23671;DHT22;12012;51.998;7.614;2022-09-09T15:34:05;22.20;99.90
23671;DHT22;12012;51.998;7.614;2022-09-09T15:36:42;21.80;99.90
23671;DHT22;12012;51.998;7.614;2022-09-09T15:39:13;21.40;99.90
23671;DHT22;12012;51.998;7.614;2022-09-09T15:41:42;21.10;99.90
23671;DHT22;12012;51.998;7.614;2022-09-09T15:44:09;20.90;99.90
23671;DHT22;12012;51.998;7.614;2022-09-09T15:46:39;20.70;99.90
23671;DHT22;12012;51.998;7.614;2022-09-09T15:49:10;20.60;99.90
23671;DHT22;12012;51.998;7.614;2022-09-09T15:51:37;20.50;99.90
23671;DHT22;12012;51.998;7.614;2022-09-09T15:54:03;20.30;99.90
23671;DHT22;12012;51.998;7.614;2022-09-09T15:56:30;20.20;99.90
23671;DHT22;12012;51.998;7.614;2022-09-09T15:58:57;20.00;99.90
23671;DHT22;12012;51.998;7.614;2022-09-09T16:01:22;19.70;1.00
23671;DHT22;12012;51.998;7.614;2022-09-09T16:03:48;19.50;1.00
23671;DHT22;12012;51.998;7.614;2022-09-09T16:06:17;19.40;1.00
23671;DHT22;12012;51.998;7.614;2022-09-09T16:08:45;19.20;99.90
23671;DHT22;12012;51.998;7.614;2022-09-09T16:11:14;19.00;99.90
23671;DHT22;12012;51.998;7.614;2022-09-09T16:13:41;18.80;99.90
23671;DHT22;12012;51.998;7.614;2022-09-09T16:16:08;18.70;1.00
23671;DHT22;12012;51.998;7.614;2022-09-09T16:18:35;18.60;1.00
23671;DHT22;12012;51.998;7.614;2022-09-09T16:21:02;18.50;1.00
23671;DHT22;12012;51.998;7.614;2022-09-09T16:23:31;18.40;18.80
23671;DHT22;12012;51.998;7.614;2022-09-09T16:25:57;18.40;1.00
23671;DHT22;12012;51.998;7.614;2022-09-09T16:28:23;18.30;99.90
23671;DHT22;12012;51.998;7.614;2022-09-09T16:30:49;18.20;1.00
23671;DHT22;12012;51.998;7.614;2022-09-09T16:33:15;18.10;99.90
23671;DHT22;12012;51.998;7.614;2022-09-09T16:35:41;18.00;99.90
23671;DHT22;12012;51.998;7.614;2022-09-09T16:38:07;17.80;17.80
23671;DHT22;12012;51.998;7.614;2022-09-09T16:40:39;17.60;1.00
23671;DHT22;12012;51.998;7.614;2022-09-09T16:43:07;17.40;99.90
23671;DHT22;12012;51.998;7.614;2022-09-09T16:45:33;17.20;99.90
23671;DHT22;12012;51.998;7.614;2022-09-09T16:47:59;17.00;1.00
23671;DHT22;12012;51.998;7.614;2022-09-09T16:50:26;16.80;99.90
23671;DHT22;12012;51.998;7.614;2022-09-09T16:52:52;16.70;99.90
23671;DHT22;12012;51.998;7.614;2022-09-09T16:55:18;16.60;1.00
23671;DHT22;12012;51.998;7.614;2022-09-09T16:57:46;16.60;99.90
23671;DHT22;12012;51.998;7.614;2022-09-09T17:00:14;16.50;99.90
23671;DHT22;12012;51.998;7.614;2022-09-09T17:02:42;16.50;99.90
23671;DHT22;12012;51.998;7.614;2022-09-09T17:05:07;16.50;1.00
23671;DHT22;12012;51.998;7.614;2022-09-09T17:07:33;16.50;99.90
23671;DHT22;12012;51.998;7.614;2022-09-09T17:09:58;16.50;99.90
23671;DHT22;12012;51.998;7.614;2022-09-09T17:12:24;16.50;99.90
23671;DHT22;12012;51.998;7.614;2022-09-09T17:14:50;16.50;88.60
23671;DHT22;12012;51.998;7.614;2022-09-09T17:17:16;16.60;72.30
23671;DHT22;12012;51.998;7.614;2022-09-09T17:19:42;16.60;99.90
23671;DHT22;12012;51.998;7.614;2022-09-09T17:22:08;16.60;99.90
23671;DHT22;12012;51.998;7.614;2022-09-09T17:24:34;16.60;99.90
23671;DHT22;12012;51.998;7.614;2022-09-09T17:27:00;16.60;1.00
23671;DHT22;12012;51.998;7.614;2022-09-09T17:29:27;16.60;1.00
23671;DHT22;12012;51.998;7.614;2022-09-09T17:31:53;16.60;1.00
23671;DHT22;12012;51.998;7.614;2022-09-09T17:34:19;16.60;1.00
23671;DHT22;12012;51.998;7.614;2022-09-09T17:36:44;16.60;1.00
23671;DHT22;12012;51.998;7.614;2022-09-09T17:39:10;16.50;1.00
23671;DHT22;12012;51.998;7.614;2022-09-09T17:41:37;16.50;1.00